sensor_id;sensor_type;location;lat;lon;timestamp;pressure;altitude;pressure_sealevel;temperature;humidity
37694;BME280;23531;50.122;8.644;2024-02-26T00:01:56;64050.78;;;-142.95;100.00
37694;BME280;23531;50.122;8.644;2024-02-26T00:03:58;64050.78;;;-142.95;100.00
37694;BME280;23531;50.122;8.644;2024-02-26T00:06:00;64050.78;;;-142.95;100.00
37694;BME280;23531;50.122;8.644;2024-02-26T00:08:01;64050.78;;;-142.95;100.00
37694;BME280;23531;50.122;8.644;2024-02-26T00:10:03;64050.78;;;-142.95;100.00
37694;BME280;23531;50.122;8.644;2024-02-26T00:12:05;64050.78;;;-142.95;100.00
37694;BME280;23531;50.122;8.644;2024-02-26T00:14:06;64050.78;;;-142.95;100.00
37694;BME280;23531;50.122;8.644;2024-02-26T00:16:08;64050.78;;;-142.95;100.00
37694;BME280;23531;50.122;8.644;2024-02-26T00:18:10;64050.78;;;-142.95;100.00
37694;BME280;23531;50.122;8.644;2024-02-26T00:20:11;64050.78;;;-142.95;100.00
37694;BME280;23531;50.122;8.644;2024-02-26T00:22:14;64050.78;;;-142.95;100.00
37694;BME280;23531;50.122;8.644;2024-02-26T00:24:15;64050.78;;;-142.95;100.00
37694;BME280;23531;50.122;8.644;2024-02-26T00:26:16;64050.78;;;-142.95;100.00
37694;BME280;23531;50.122;8.644;2024-02-26T00:28:17;64050.78;;;-142.95;100.00
37694;BME280;23531;50.122;8.644;2024-02-26T00:30:20;64050.78;;;-142.95;100.00
37694;BME280;23531;50.122;8.644;2024-02-26T00:32:22;64050.78;;;-142.95;100.00
37694;BME280;23531;50.122;8.644;2024-02-26T00:34:25;64050.78;;;-142.95;100.00
37694;BME280;23531;50.122;8.644;2024-02-26T00:36:26;64050.78;;;-142.95;100.00
37694;BME280;23531;50.122;8.644;2024-02-26T00:38:28;64050.78;;;-142.95;100.00
37694;BME280;23531;50.122;8.644;2024-02-26T00:40:29;64050.78;;;-142.95;100.00
37694;BME280;23531;50.122;8.644;2024-02-26T00:42:31;64050.78;;;-142.95;100.00
37694;BME280;23531;50.122;8.644;2024-02-26T00:44:32;64050.78;;;-142.95;100.00
37694;BME280;23531;50.122;8.644;2024-02-26T00:46:33;64050.78;;;-142.95;100.00
37694;BME280;23531;50.122;8.644;2024-02-26T00:48:34;64050.78;;;-142.95;100.00
37694;BME280;23531;50.122;8.644;2024-02-26T00:50:37;64050.78;;;-142.95;100.00
37694;BME280;23531;50.122;8.644;2024-02-26T00:52:37;64050.78;;;-142.95;100.00
37694;BME280;23531;50.122;8.644;2024-02-26T00:54:38;64050.78;;;-142.95;100.00
37694;BME280;23531;50.122;8.644;2024-02-26T00:56:40;64050.78;;;-142.95;100.00
37694;BME280;23531;50.122;8.644;2024-02-26T00:58:41;64050.78;;;-142.95;100.00
37694;BME280;23531;50.122;8.644;2024-02-26T01:00:42;64050.78;;;-142.95;100.00
37694;BME280;23531;50.122;8.644;2024-02-26T01:02:44;64050.78;;;-142.95;100.00
37694;BME280;23531;50.122;8.644;2024-02-26T01:04:46;64050.78;;;-142.95;100.00
37694;BME280;23531;50.122;8.644;2024-02-26T01:06:49;64050.78;;;-142.95;100.00
37694;BME280;23531;50.122;8.644;2024-02-26T01:08:50;64050.78;;;-142.95;100.00
37694;BME280;23531;50.122;8.644;2024-02-26T01:10:52;64050.78;;;-142.95;100.00
37694;BME280;23531;50.122;8.644;2024-02-26T01:12:53;64050.78;;;-142.95;100.00
37694;BME280;23531;50.122;8.644;2024-02-26T01:14:54;64050.78;;;-142.95;100.00
37694;BME280;23531;50.122;8.644;2024-02-26T01:16:56;64050.78;;;-142.95;100.00
37694;BME280;23531;50.122;8.644;2024-02-26T01:18:56;64050.78;;;-142.95;100.00
37694;BME280;23531;50.122;8.644;2024-02-26T01:20:57;64050.78;;;-142.95;100.00
37694;BME280;23531;50.122;8.644;2024-02-26T01:22:59;64050.78;;;-142.95;100.00
37694;BME280;23531;50.122;8.644;2024-02-26T01:25:01;64050.78;;;-142.95;100.00
37694;BME280;23531;50.122;8.644;2024-02-26T01:27:01;64050.78;;;-142.95;100.00
37694;BME280;23531;50.122;8.644;2024-02-26T01:29:03;64050.78;;;-142.95;100.00
37694;BME280;23531;50.122;8.644;2024-02-26T01:31:03;64050.78;;;-142.95;100.00
37694;BME280;23531;50.122;8.644;2024-02-26T01:33:06;64050.78;;;-142.95;100.00
37694;BME280;23531;50.122;8.644;2024-02-26T01:35:08;64050.78;;;-142.95;100.00
37694;BME280;23531;50.122;8.644;2024-02-26T01:37:12;64050.78;;;-142.95;100.00
37694;BME280;23531;50.122;8.644;2024-02-26T01:39:14;64050.78;;;-142.95;100.00
37694;BME280;23531;50.122;8.644;2024-02-26T01:41:16;64050.78;;;-142.95;100.00
37694;BME280;23531;50.122;8.644;2024-02-26T01:43:17;64050.78;;;-142.95;100.00
37694;BME280;23531;50.122;8.644;2024-02-26T01:45:18;64050.78;;;-142.95;100.00
37694;BME280;23531;50.122;8.644;2024-02-26T01:47:24;64050.78;;;-142.95;100.00
37694;BME280;23531;50.122;8.644;2024-02-26T01:49:27;64050.78;;;-142.95;100.00
37694;BME280;23531;50.122;8.644;2024-02-26T01:51:29;64050.78;;;-142.95;100.00
37694;BME280;23531;50.122;8.644;2024-02-26T01:53:32;64050.78;;;-142.95;100.00
37694;BME280;23531;50.122;8.644;2024-02-26T01:55:35;64050.78;;;-142.95;100.00
37694;BME280;23531;50.122;8.644;2024-02-26T01:57:36;64050.78;;;-142.95;100.00
37694;BME280;23531;50.122;8.644;2024-02-26T01:59:37;64050.78;;;-142.95;100.00
37694;BME280;23531;50.122;8.644;2024-02-26T02:01:44;64050.78;;;-142.95;100.00
37694;BME280;23531;50.122;8.644;2024-02-26T11:23:00;99049.72;;;9.14;84.73
37694;BME280;23531;50.122;8.644;2024-02-26T11:25:02;99040.72;;;9.20;85.06
37694;BME280;23531;50.122;8.644;2024-02-26T11:27:04;99045.75;;;9.04;85.68
37694;BME280;23531;50.122;8.644;2024-02-26T11:29:08;99045.28;;;8.96;85.83
37694;BME280;23531;50.122;8.644;2024-02-26T11:31:12;99046.75;;;9.38;85.04
37694;BME280;23531;50.122;8.644;2024-02-26T11:33:15;99046.94;;;9.60;84.67
37694;BME280;23531;50.122;8.644;2024-02-26T11:35:16;99047.06;;;9.65;84.53
37694;BME280;23531;50.122;8.644;2024-02-26T11:37:19;99038.28;;;9.81;84.44
37694;BME280;23531;50.122;8.644;2024-02-26T11:39:22;99049.75;;;9.65;84.95
37694;BME280;23531;50.122;8.644;2024-02-26T11:41:23;99051.94;;;9.80;84.83
37694;BME280;23531;50.122;8.644;2024-02-26T11:43:49;99051.16;;;9.96;84.42
37694;BME280;23531;50.122;8.644;2024-02-26T11:45:51;99057.53;;;10.07;83.51
37694;BME280;23531;50.122;8.644;2024-02-26T11:47:57;99057.06;;;10.10;83.49
37694;BME280;23531;50.122;8.644;2024-02-26T11:49:58;99049.34;;;10.25;83.09
37694;BME280;23531;50.122;8.644;2024-02-26T11:52:00;99056.34;;;10.26;82.49
37694;BME280;23531;50.122;8.644;2024-02-26T11:54:03;99042.22;;;10.19;82.22
37694;BME280;23531;50.122;8.644;2024-02-26T11:56:25;64050.78;;;-142.95;100.00
37694;BME280;23531;50.122;8.644;2024-02-26T11:58:31;64050.78;;;9.97;100.00
37694;BME280;23531;50.122;8.644;2024-02-26T12:00:31;64050.78;;;-142.95;100.00
37694;BME280;23531;50.122;8.644;2024-02-26T12:02:41;64050.78;;;-142.95;100.00
37694;BME280;23531;50.122;8.644;2024-02-26T12:04:45;64050.78;;;-142.95;100.00
37694;BME280;23531;50.122;8.644;2024-02-26T12:06:50;64050.78;;;-142.95;100.00
37694;BME280;23531;50.122;8.644;2024-02-26T12:08:52;64050.78;;;-142.95;100.00
37694;BME280;23531;50.122;8.644;2024-02-26T12:10:54;64050.78;;;189.36;100.00
37694;BME280;23531;50.122;8.644;2024-02-26T12:13:11;99038.75;;;9.78;nan
37694;BME280;23531;50.122;8.644;2024-02-26T12:15:15;99037.34;;;9.76;nan
37694;BME280;23531;50.122;8.644;2024-02-26T12:17:19;99049.94;;;9.75;nan
37694;BME280;23531;50.122;8.644;2024-02-26T12:19:21;99049.50;;;9.78;nan
37694;BME280;23531;50.122;8.644;2024-02-26T12:21:22;99040.56;;;9.90;nan
37694;BME280;23531;50.122;8.644;2024-02-26T12:23:24;99049.25;;;10.08;nan
37694;BME280;23531;50.122;8.644;2024-02-26T12:25:26;99049.47;;;10.07;nan
37694;BME280;23531;50.122;8.644;2024-02-26T12:27:28;99052.75;;;10.09;nan
37694;BME280;23531;50.122;8.644;2024-02-26T12:29:30;99053.38;;;10.28;nan
37694;BME280;23531;50.122;8.644;2024-02-26T12:31:32;99058.53;;;10.17;nan
37694;BME280;23531;50.122;8.644;2024-02-26T12:33:34;99053.84;;;10.36;nan
37694;BME280;23531;50.122;8.644;2024-02-26T12:35:36;99051.31;;;10.46;nan
37694;BME280;23531;50.122;8.644;2024-02-26T12:37:37;99050.63;;;10.39;nan
37694;BME280;23531;50.122;8.644;2024-02-26T12:39:39;99062.59;;;10.60;nan
37694;BME280;23531;50.122;8.644;2024-02-26T12:41:40;99061.41;;;10.73;nan
37694;BME280;23531;50.122;8.644;2024-02-26T12:43:46;99072.09;;;10.68;nan
37694;BME280;23531;50.122;8.644;2024-02-26T12:45:49;99067.63;;;10.73;nan
37694;BME280;23531;50.122;8.644;2024-02-26T12:47:50;99072.28;;;10.78;nan
37694;BME280;23531;50.122;8.644;2024-02-26T12:49:51;99071.63;;;10.71;nan
37694;BME280;23531;50.122;8.644;2024-02-26T12:51:52;99075.13;;;10.71;nan
37694;BME280;23531;50.122;8.644;2024-02-26T12:53:55;99086.78;;;10.60;nan
37694;BME280;23531;50.122;8.644;2024-02-26T12:55:57;99081.41;;;10.32;nan
37694;BME280;23531;50.122;8.644;2024-02-26T12:57:59;99076.84;;;10.32;nan
37694;BME280;23531;50.122;8.644;2024-02-26T13:00:01;99070.19;;;10.51;nan
37694;BME280;23531;50.122;8.644;2024-02-26T13:02:05;99075.84;;;10.67;nan
37694;BME280;23531;50.122;8.644;2024-02-26T13:04:07;99073.97;;;10.67;nan
37694;BME280;23531;50.122;8.644;2024-02-26T13:06:09;99074.72;;;10.79;nan
37694;BME280;23531;50.122;8.644;2024-02-26T13:08:10;99086.19;;;10.75;nan
37694;BME280;23531;50.122;8.644;2024-02-26T13:10:11;99089.63;;;10.87;nan
37694;BME280;23531;50.122;8.644;2024-02-26T13:12:13;99093.88;;;10.83;nan
37694;BME280;23531;50.122;8.644;2024-02-26T13:14:19;99093.22;;;10.76;nan
37694;BME280;23531;50.122;8.644;2024-02-26T13:16:23;99096.81;;;10.81;nan
37694;BME280;23531;50.122;8.644;2024-02-26T13:18:27;99099.56;;;10.86;nan
37694;BME280;23531;50.122;8.644;2024-02-26T13:20:31;99103.16;;;10.92;nan
37694;BME280;23531;50.122;8.644;2024-02-26T13:22:34;99099.50;;;10.98;nan
37694;BME280;23531;50.122;8.644;2024-02-26T13:24:36;99101.88;;;10.95;nan
37694;BME280;23531;50.122;8.644;2024-02-26T13:26:37;99107.81;;;10.80;nan
37694;BME280;23531;50.122;8.644;2024-02-26T13:28:39;99107.94;;;10.73;nan
37694;BME280;23531;50.122;8.644;2024-02-26T13:30:41;99109.34;;;10.76;nan
37694;BME280;23531;50.122;8.644;2024-02-26T13:32:43;99109.19;;;10.82;nan
37694;BME280;23531;50.122;8.644;2024-02-26T13:34:46;99106.91;;;10.91;nan
37694;BME280;23531;50.122;8.644;2024-02-26T13:36:47;99108.47;;;11.04;nan
37694;BME280;23531;50.122;8.644;2024-02-26T13:38:51;99114.56;;;10.82;nan
37694;BME280;23531;50.122;8.644;2024-02-26T13:40:53;99114.72;;;10.59;nan
37694;BME280;23531;50.122;8.644;2024-02-26T13:42:54;99123.66;;;10.48;nan
37694;BME280;23531;50.122;8.644;2024-02-26T13:44:55;99120.25;;;10.41;nan
37694;BME280;23531;50.122;8.644;2024-02-26T13:46:57;99116.88;;;10.45;nan
37694;BME280;23531;50.122;8.644;2024-02-26T13:48:57;99113.06;;;10.58;nan
37694;BME280;23531;50.122;8.644;2024-02-26T13:51:00;99116.94;;;10.79;nan
37694;BME280;23531;50.122;8.644;2024-02-26T13:53:02;99113.94;;;10.92;nan
37694;BME280;23531;50.122;8.644;2024-02-26T13:55:05;99119.91;;;10.66;nan
37694;BME280;23531;50.122;8.644;2024-02-26T13:57:07;99119.13;;;10.82;nan
37694;BME280;23531;50.122;8.644;2024-02-26T13:59:09;99123.06;;;10.91;nan
37694;BME280;23531;50.122;8.644;2024-02-26T14:01:11;99125.88;;;10.84;nan
37694;BME280;23531;50.122;8.644;2024-02-26T14:03:12;99126.31;;;10.93;nan
37694;BME280;23531;50.122;8.644;2024-02-26T14:05:14;99133.28;;;10.77;nan
37694;BME280;23531;50.122;8.644;2024-02-26T14:07:15;99127.03;;;10.72;nan
37694;BME280;23531;50.122;8.644;2024-02-26T14:09:17;99130.13;;;10.80;nan
37694;BME280;23531;50.122;8.644;2024-02-26T14:11:19;99130.53;;;10.89;nan
37694;BME280;23531;50.122;8.644;2024-02-26T14:13:21;99124.44;;;10.94;nan
37694;BME280;23531;50.122;8.644;2024-02-26T14:15:22;99130.69;;;10.99;nan
37694;BME280;23531;50.122;8.644;2024-02-26T14:17:24;99127.78;;;11.01;nan
37694;BME280;23531;50.122;8.644;2024-02-26T14:19:26;99127.59;;;11.07;nan
37694;BME280;23531;50.122;8.644;2024-02-26T14:21:28;99126.63;;;11.13;nan
37694;BME280;23531;50.122;8.644;2024-02-26T14:23:32;99126.63;;;11.13;nan
37694;BME280;23531;50.122;8.644;2024-02-26T14:25:32;99130.38;;;11.12;nan
37694;BME280;23531;50.122;8.644;2024-02-26T14:27:34;99139.09;;;11.03;nan
37694;BME280;23531;50.122;8.644;2024-02-26T14:29:35;99142.28;;;11.00;nan
37694;BME280;23531;50.122;8.644;2024-02-26T14:31:37;99144.09;;;10.94;nan
37694;BME280;23531;50.122;8.644;2024-02-26T14:33:38;99141.94;;;10.96;nan
37694;BME280;23531;50.122;8.644;2024-02-26T14:35:40;99143.75;;;11.07;nan
37694;BME280;23531;50.122;8.644;2024-02-26T14:37:42;99146.19;;;11.09;nan
37694;BME280;23531;50.122;8.644;2024-02-26T14:39:45;99148.25;;;11.02;nan
37694;BME280;23531;50.122;8.644;2024-02-26T14:41:48;99156.78;;;10.82;nan
37694;BME280;23531;50.122;8.644;2024-02-26T14:43:49;99149.97;;;10.63;nan
37694;BME280;23531;50.122;8.644;2024-02-26T14:45:50;99149.06;;;10.57;nan
37694;BME280;23531;50.122;8.644;2024-02-26T14:47:51;99151.69;;;10.69;nan
37694;BME280;23531;50.122;8.644;2024-02-26T14:49:52;99152.34;;;10.76;nan
37694;BME280;23531;50.122;8.644;2024-02-26T14:51:54;99148.31;;;10.62;nan
37694;BME280;23531;50.122;8.644;2024-02-26T14:53:55;99151.53;;;10.59;nan
37694;BME280;23531;50.122;8.644;2024-02-26T14:55:57;99145.41;;;10.63;nan
37694;BME280;23531;50.122;8.644;2024-02-26T14:57:58;99150.53;;;10.65;nan
37694;BME280;23531;50.122;8.644;2024-02-26T15:00:00;99158.19;;;10.56;nan
37694;BME280;23531;50.122;8.644;2024-02-26T15:02:01;99164.28;;;10.51;nan
37694;BME280;23531;50.122;8.644;2024-02-26T15:04:02;99168.31;;;10.66;nan
37694;BME280;23531;50.122;8.644;2024-02-26T15:06:04;99161.00;;;10.78;nan
37694;BME280;23531;50.122;8.644;2024-02-26T15:08:05;99164.09;;;10.70;nan
37694;BME280;23531;50.122;8.644;2024-02-26T15:10:09;99160.19;;;10.77;nan
37694;BME280;23531;50.122;8.644;2024-02-26T15:12:12;99161.91;;;10.83;nan
37694;BME280;23531;50.122;8.644;2024-02-26T15:14:13;99162.44;;;10.69;nan
37694;BME280;23531;50.122;8.644;2024-02-26T15:16:18;99163.75;;;10.66;nan
37694;BME280;23531;50.122;8.644;2024-02-26T15:18:20;99150.72;;;10.75;nan
37694;BME280;23531;50.122;8.644;2024-02-26T15:20:22;99157.84;;;10.81;nan
37694;BME280;23531;50.122;8.644;2024-02-26T15:22:23;99149.13;;;10.90;nan
37694;BME280;23531;50.122;8.644;2024-02-26T15:24:25;99158.41;;;11.00;nan
37694;BME280;23531;50.122;8.644;2024-02-26T15:26:27;99159.81;;;11.02;nan
37694;BME280;23531;50.122;8.644;2024-02-26T15:28:30;99164.84;;;10.82;nan
37694;BME280;23531;50.122;8.644;2024-02-26T15:30:31;99172.91;;;10.82;nan
37694;BME280;23531;50.122;8.644;2024-02-26T15:32:33;99167.34;;;10.72;nan
37694;BME280;23531;50.122;8.644;2024-02-26T15:34:33;99159.94;;;10.79;nan
37694;BME280;23531;50.122;8.644;2024-02-26T15:36:35;99154.75;;;10.89;nan
37694;BME280;23531;50.122;8.644;2024-02-26T15:38:35;99153.75;;;10.95;nan
37694;BME280;23531;50.122;8.644;2024-02-26T15:40:37;99164.03;;;10.98;nan
37694;BME280;23531;50.122;8.644;2024-02-26T15:42:38;99166.81;;;11.03;nan
37694;BME280;23531;50.122;8.644;2024-02-26T15:44:42;99164.72;;;11.05;nan
37694;BME280;23531;50.122;8.644;2024-02-26T15:46:43;99174.38;;;11.06;nan
37694;BME280;23531;50.122;8.644;2024-02-26T15:48:45;99181.75;;;11.11;nan
37694;BME280;23531;50.122;8.644;2024-02-26T15:50:45;99179.03;;;11.11;nan
37694;BME280;23531;50.122;8.644;2024-02-26T15:52:47;99187.25;;;10.87;nan
37694;BME280;23531;50.122;8.644;2024-02-26T15:54:49;99186.03;;;10.95;nan
37694;BME280;23531;50.122;8.644;2024-02-26T15:56:51;99183.53;;;11.05;nan
37694;BME280;23531;50.122;8.644;2024-02-26T15:58:52;99193.31;;;11.11;nan
37694;BME280;23531;50.122;8.644;2024-02-26T16:00:55;99189.56;;;11.12;nan
37694;BME280;23531;50.122;8.644;2024-02-26T16:02:56;99193.78;;;11.08;nan
37694;BME280;23531;50.122;8.644;2024-02-26T16:04:57;99193.97;;;11.02;nan
37694;BME280;23531;50.122;8.644;2024-02-26T16:07:02;99192.16;;;11.07;nan
37694;BME280;23531;50.122;8.644;2024-02-26T16:09:07;99205.13;;;11.10;nan
37694;BME280;23531;50.122;8.644;2024-02-26T16:11:08;99196.25;;;11.10;nan
37694;BME280;23531;50.122;8.644;2024-02-26T16:13:10;99210.50;;;11.10;nan
37694;BME280;23531;50.122;8.644;2024-02-26T16:15:11;99211.16;;;11.01;nan
37694;BME280;23531;50.122;8.644;2024-02-26T16:17:17;99218.75;;;11.04;nan
37694;BME280;23531;50.122;8.644;2024-02-26T16:19:20;99229.28;;;11.05;nan
37694;BME280;23531;50.122;8.644;2024-02-26T16:21:23;99235.47;;;11.06;nan
37694;BME280;23531;50.122;8.644;2024-02-26T16:23:24;99236.75;;;11.03;nan
37694;BME280;23531;50.122;8.644;2024-02-26T16:25:25;99250.22;;;11.03;nan
37694;BME280;23531;50.122;8.644;2024-02-26T16:27:27;99243.53;;;11.06;nan
37694;BME280;23531;50.122;8.644;2024-02-26T16:29:28;99244.44;;;11.11;nan
37694;BME280;23531;50.122;8.644;2024-02-26T16:31:30;99246.66;;;11.14;nan
37694;BME280;23531;50.122;8.644;2024-02-26T16:33:33;99250.72;;;11.17;nan
37694;BME280;23531;50.122;8.644;2024-02-26T16:35:34;99251.78;;;11.16;nan
37694;BME280;23531;50.122;8.644;2024-02-26T16:37:35;99252.03;;;11.14;nan
37694;BME280;23531;50.122;8.644;2024-02-26T16:39:37;99261.38;;;11.12;nan
37694;BME280;23531;50.122;8.644;2024-02-26T16:41:39;99259.53;;;11.12;nan
37694;BME280;23531;50.122;8.644;2024-02-26T16:43:39;99260.34;;;11.13;nan
37694;BME280;23531;50.122;8.644;2024-02-26T16:45:41;99262.91;;;11.08;nan
37694;BME280;23531;50.122;8.644;2024-02-26T16:47:42;99264.78;;;11.07;nan
37694;BME280;23531;50.122;8.644;2024-02-26T16:49:45;64050.78;;;-142.95;100.00
37694;BME280;23531;50.122;8.644;2024-02-26T16:51:47;64050.78;;;12.67;100.00
37694;BME280;23531;50.122;8.644;2024-02-26T16:53:48;99273.44;;;11.09;nan
37694;BME280;23531;50.122;8.644;2024-02-26T16:55:49;99299.09;;;11.00;nan
37694;BME280;23531;50.122;8.644;2024-02-26T16:57:51;99285.06;;;10.98;nan
37694;BME280;23531;50.122;8.644;2024-02-26T16:59:52;99295.34;;;11.01;nan
37694;BME280;23531;50.122;8.644;2024-02-26T17:01:53;99293.72;;;11.00;nan
37694;BME280;23531;50.122;8.644;2024-02-26T17:03:55;99293.72;;;11.00;nan
37694;BME280;23531;50.122;8.644;2024-02-26T17:05:58;99288.50;;;10.94;nan
37694;BME280;23531;50.122;8.644;2024-02-26T17:08:00;99293.59;;;10.95;nan
37694;BME280;23531;50.122;8.644;2024-02-26T17:10:01;99299.72;;;10.90;nan
37694;BME280;23531;50.122;8.644;2024-02-26T17:12:04;99310.56;;;10.96;nan
37694;BME280;23531;50.122;8.644;2024-02-26T17:14:06;99306.28;;;10.95;nan
37694;BME280;23531;50.122;8.644;2024-02-26T17:16:07;99308.69;;;10.96;nan
37694;BME280;23531;50.122;8.644;2024-02-26T17:18:08;99303.31;;;10.96;nan
37694;BME280;23531;50.122;8.644;2024-02-26T17:20:13;99308.16;;;10.94;nan
37694;BME280;23531;50.122;8.644;2024-02-26T17:22:15;99321.00;;;10.92;nan
37694;BME280;23531;50.122;8.644;2024-02-26T17:24:17;99317.97;;;10.88;nan
37694;BME280;23531;50.122;8.644;2024-02-26T17:26:19;99324.84;;;10.96;nan
37694;BME280;23531;50.122;8.644;2024-02-26T17:28:20;99329.19;;;10.85;nan
37694;BME280;23531;50.122;8.644;2024-02-26T17:30:22;99328.13;;;10.86;nan
37694;BME280;23531;50.122;8.644;2024-02-26T17:32:23;99337.13;;;10.92;nan
37694;BME280;23531;50.122;8.644;2024-02-26T17:34:25;99336.31;;;10.91;nan
37694;BME280;23531;50.122;8.644;2024-02-26T17:36:25;99349.41;;;10.88;nan
37694;BME280;23531;50.122;8.644;2024-02-26T17:38:28;99352.47;;;10.91;nan
37694;BME280;23531;50.122;8.644;2024-02-26T17:40:30;99352.69;;;10.90;nan
37694;BME280;23531;50.122;8.644;2024-02-26T17:42:31;99356.31;;;10.84;nan
37694;BME280;23531;50.122;8.644;2024-02-26T17:44:35;99357.97;;;10.85;nan
37694;BME280;23531;50.122;8.644;2024-02-26T17:46:37;99364.38;;;10.84;nan
37694;BME280;23531;50.122;8.644;2024-02-26T17:48:38;99360.19;;;10.88;nan
37694;BME280;23531;50.122;8.644;2024-02-26T17:50:42;99356.19;;;10.90;nan
37694;BME280;23531;50.122;8.644;2024-02-26T17:52:43;99370.94;;;10.88;nan
37694;BME280;23531;50.122;8.644;2024-02-26T17:54:46;99365.56;;;10.88;nan
37694;BME280;23531;50.122;8.644;2024-02-26T17:56:47;99371.53;;;10.90;nan
37694;BME280;23531;50.122;8.644;2024-02-26T17:58:51;99373.84;;;10.86;nan
37694;BME280;23531;50.122;8.644;2024-02-26T18:00:52;99374.00;;;10.80;nan
37694;BME280;23531;50.122;8.644;2024-02-26T18:02:55;99378.09;;;10.82;nan
37694;BME280;23531;50.122;8.644;2024-02-26T18:04:56;99378.91;;;10.83;nan
37694;BME280;23531;50.122;8.644;2024-02-26T18:06:56;99378.31;;;10.81;nan
37694;BME280;23531;50.122;8.644;2024-02-26T18:08:58;99377.28;;;10.82;nan
37694;BME280;23531;50.122;8.644;2024-02-26T18:11:01;99388.50;;;10.79;nan
37694;BME280;23531;50.122;8.644;2024-02-26T18:13:03;99383.94;;;10.79;nan
37694;BME280;23531;50.122;8.644;2024-02-26T18:15:05;99388.13;;;10.75;nan
37694;BME280;23531;50.122;8.644;2024-02-26T18:17:07;99388.13;;;10.75;nan
37694;BME280;23531;50.122;8.644;2024-02-26T18:19:09;99390.97;;;10.69;nan
37694;BME280;23531;50.122;8.644;2024-02-26T18:21:10;99397.50;;;10.61;nan
37694;BME280;23531;50.122;8.644;2024-02-26T18:23:12;99402.41;;;10.64;nan
37694;BME280;23531;50.122;8.644;2024-02-26T18:25:15;99406.50;;;10.67;nan
37694;BME280;23531;50.122;8.644;2024-02-26T18:27:18;99405.56;;;10.73;nan
37694;BME280;23531;50.122;8.644;2024-02-26T18:29:20;99407.69;;;10.71;nan
37694;BME280;23531;50.122;8.644;2024-02-26T18:31:22;99413.88;;;10.71;nan
37694;BME280;23531;50.122;8.644;2024-02-26T18:33:22;99415.16;;;10.69;nan
37694;BME280;23531;50.122;8.644;2024-02-26T18:35:24;99418.91;;;10.68;nan
37694;BME280;23531;50.122;8.644;2024-02-26T18:37:25;99417.25;;;10.67;nan
37694;BME280;23531;50.122;8.644;2024-02-26T18:39:27;99422.66;;;10.67;nan
37694;BME280;23531;50.122;8.644;2024-02-26T18:41:28;99427.34;;;10.60;nan
37694;BME280;23531;50.122;8.644;2024-02-26T18:43:31;99431.06;;;10.59;nan
37694;BME280;23531;50.122;8.644;2024-02-26T18:45:33;99438.91;;;10.60;nan
37694;BME280;23531;50.122;8.644;2024-02-26T18:47:34;99433.25;;;10.62;nan
37694;BME280;23531;50.122;8.644;2024-02-26T18:49:38;99435.13;;;10.61;nan
37694;BME280;23531;50.122;8.644;2024-02-26T18:51:41;99446.84;;;10.55;nan
37694;BME280;23531;50.122;8.644;2024-02-26T18:53:42;99444.38;;;10.53;nan
37694;BME280;23531;50.122;8.644;2024-02-26T18:55:44;99450.22;;;10.50;nan
37694;BME280;23531;50.122;8.644;2024-02-26T18:57:45;99452.78;;;10.45;nan
37694;BME280;23531;50.122;8.644;2024-02-26T18:59:48;99447.28;;;10.52;nan
37694;BME280;23531;50.122;8.644;2024-02-26T19:01:50;99455.50;;;10.57;nan
37694;BME280;23531;50.122;8.644;2024-02-26T19:03:51;99461.44;;;10.47;nan
37694;BME280;23531;50.122;8.644;2024-02-26T19:05:53;99462.28;;;10.48;nan
37694;BME280;23531;50.122;8.644;2024-02-26T19:07:54;99472.66;;;10.44;nan
37694;BME280;23531;50.122;8.644;2024-02-26T19:09:58;99474.28;;;10.45;nan
37694;BME280;23531;50.122;8.644;2024-02-26T19:11:59;99479.66;;;10.45;nan
37694;BME280;23531;50.122;8.644;2024-02-26T19:14:00;99479.22;;;10.48;nan
37694;BME280;23531;50.122;8.644;2024-02-26T19:16:04;99487.72;;;10.45;nan
37694;BME280;23531;50.122;8.644;2024-02-26T19:18:05;99486.53;;;10.41;nan
37694;BME280;23531;50.122;8.644;2024-02-26T19:20:07;99483.53;;;10.38;nan
37694;BME280;23531;50.122;8.644;2024-02-26T19:22:10;99496.16;;;10.37;nan
37694;BME280;23531;50.122;8.644;2024-02-26T19:24:11;99494.50;;;10.36;nan
37694;BME280;23531;50.122;8.644;2024-02-26T19:26:14;99499.28;;;10.34;nan
37694;BME280;23531;50.122;8.644;2024-02-26T19:28:16;99503.00;;;10.33;nan
37694;BME280;23531;50.122;8.644;2024-02-26T19:30:17;99498.09;;;10.30;nan
37694;BME280;23531;50.122;8.644;2024-02-26T19:32:20;99503.47;;;10.30;nan
37694;BME280;23531;50.122;8.644;2024-02-26T19:34:21;99507.47;;;10.39;nan
37694;BME280;23531;50.122;8.644;2024-02-26T19:36:23;99512.13;;;10.32;nan
37694;BME280;23531;50.122;8.644;2024-02-26T19:38:24;99515.16;;;10.24;nan
37694;BME280;23531;50.122;8.644;2024-02-26T19:40:26;99515.81;;;10.19;nan
37694;BME280;23531;50.122;8.644;2024-02-26T19:42:27;99517.69;;;10.19;nan
37694;BME280;23531;50.122;8.644;2024-02-26T19:44:29;99513.88;;;10.27;nan
37694;BME280;23531;50.122;8.644;2024-02-26T19:46:30;99526.59;;;10.31;nan
37694;BME280;23531;50.122;8.644;2024-02-26T19:48:33;99523.22;;;10.24;nan
37694;BME280;23531;50.122;8.644;2024-02-26T19:50:34;99526.13;;;10.23;nan
37694;BME280;23531;50.122;8.644;2024-02-26T19:52:36;99530.31;;;10.18;nan
37694;BME280;23531;50.122;8.644;2024-02-26T19:54:37;99531.31;;;10.17;nan
37694;BME280;23531;50.122;8.644;2024-02-26T19:56:39;99530.75;;;10.15;nan
37694;BME280;23531;50.122;8.644;2024-02-26T19:58:41;99535.88;;;10.17;nan
37694;BME280;23531;50.122;8.644;2024-02-26T20:00:42;99543.38;;;10.15;nan
37694;BME280;23531;50.122;8.644;2024-02-26T20:02:43;99548.28;;;10.18;nan
37694;BME280;23531;50.122;8.644;2024-02-26T20:04:46;99552.41;;;10.21;nan
37694;BME280;23531;50.122;8.644;2024-02-26T20:06:47;99553.66;;;10.18;nan
37694;BME280;23531;50.122;8.644;2024-02-26T20:08:49;99546.88;;;10.15;nan
37694;BME280;23531;50.122;8.644;2024-02-26T20:10:50;99551.72;;;10.07;nan
37694;BME280;23531;50.122;8.644;2024-02-26T20:12:52;99554.88;;;10.04;nan
37694;BME280;23531;50.122;8.644;2024-02-26T20:14:55;99562.47;;;10.07;nan